createdAt,value
2019-01-20T00:01:43.046Z,22.20
2019-01-20T00:04:12.500Z,21.00
2019-01-20T00:06:41.930Z,22.13
2019-01-20T00:09:12.551Z,20.77
2019-01-20T00:11:42.041Z,21.90
2019-01-20T00:14:11.478Z,23.90
2019-01-20T00:16:41.054Z,19.73
2019-01-20T00:19:10.509Z,20.40
2019-01-20T00:21:39.990Z,21.30
2019-01-20T00:24:09.465Z,20.67
2019-01-20T00:26:38.870Z,23.03
2019-01-20T00:29:08.336Z,22.20
2019-01-20T00:31:38.053Z,23.33
2019-01-20T00:34:07.534Z,23.03
2019-01-20T00:36:36.905Z,21.87
2019-01-20T00:39:09.315Z,21.57
2019-01-20T00:41:38.770Z,20.30
2019-01-20T00:44:08.203Z,22.27
2019-01-20T00:46:37.795Z,22.07
2019-01-20T00:49:07.237Z,22.77
2019-01-20T00:51:36.924Z,22.83
2019-01-20T00:54:07.020Z,22.97
2019-01-20T00:56:36.418Z,23.37
2019-01-20T00:59:05.848Z,20.80
2019-01-20T01:01:35.394Z,23.33
2019-01-20T01:04:05.031Z,22.30
2019-01-20T01:06:34.406Z,21.67
2019-01-20T01:09:05.692Z,20.93
2019-01-20T01:11:36.319Z,20.80
2019-01-20T01:14:05.874Z,21.03
2019-01-20T01:16:35.311Z,19.93
2019-01-20T01:19:04.877Z,20.70
2019-01-20T01:21:34.364Z,21.57
2019-01-20T01:24:04.080Z,20.93
2019-01-20T01:26:33.524Z,20.60
2019-01-20T01:29:02.958Z,21.67
2019-01-20T01:31:32.555Z,21.00
2019-01-20T01:34:02.010Z,21.53
2019-01-20T01:36:31.529Z,22.63
2019-01-20T01:39:01.154Z,22.03
2019-01-20T01:41:30.533Z,20.93
2019-01-20T01:44:00.155Z,21.77
2019-01-20T01:46:29.711Z,19.77
2019-01-20T01:48:59.133Z,21.70
2019-01-20T01:51:28.522Z,20.53
2019-01-20T01:53:58.017Z,22.77
2019-01-20T01:56:27.543Z,21.17
2019-01-20T01:58:56.948Z,21.83
2019-01-20T02:01:26.529Z,21.20
2019-01-20T02:03:55.967Z,20.93
2019-01-20T02:06:25.403Z,22.63
2019-01-20T02:08:54.885Z,22.70
2019-01-20T02:11:24.374Z,21.33
2019-01-20T02:13:53.832Z,22.50
2019-01-20T02:16:23.284Z,22.00
2019-01-20T02:18:52.755Z,22.27
2019-01-20T02:21:22.349Z,23.33
2019-01-20T02:23:51.831Z,22.17
2019-01-20T02:26:21.237Z,21.83
2019-01-20T02:28:50.915Z,21.20
2019-01-20T02:31:20.454Z,21.17
2019-01-20T02:33:49.896Z,22.30
2019-01-20T02:36:19.282Z,23.13
2019-01-20T02:38:48.790Z,21.73
2019-01-20T02:41:18.294Z,21.53
2019-01-20T02:43:47.721Z,23.40
2019-01-20T02:46:17.280Z,21.90
2019-01-20T02:48:47.793Z,20.43
2019-01-20T02:51:17.179Z,21.77
2019-01-20T02:53:46.849Z,22.03
2019-01-20T02:58:51.789Z,22.10
2019-01-20T03:01:21.193Z,21.93
2019-01-20T03:03:50.601Z,21.60
2019-01-20T03:06:20.406Z,21.57
2019-01-20T03:08:49.901Z,23.60
2019-01-20T03:11:19.366Z,24.13
2019-01-20T03:13:48.791Z,24.13
2019-01-20T03:16:18.286Z,23.97
2019-01-20T03:18:48.137Z,25.60
2019-01-20T03:21:17.839Z,23.80
2019-01-20T03:23:47.233Z,24.53
2019-01-20T03:26:16.712Z,25.53
2019-01-20T03:28:46.368Z,23.93
2019-01-20T03:31:15.774Z,26.53
2019-01-20T03:33:45.181Z,25.07
2019-01-20T03:36:14.686Z,24.30
2019-01-20T03:38:44.081Z,25.63
2019-01-20T03:41:13.603Z,24.73
2019-01-20T03:43:43.260Z,24.70
2019-01-20T03:46:12.661Z,24.57
2019-01-20T03:48:42.078Z,26.17
2019-01-20T03:51:11.868Z,25.70
2019-01-20T03:53:41.353Z,25.33
2019-01-20T03:56:10.759Z,26.10
2019-01-20T03:58:40.227Z,26.00
2019-01-20T04:01:09.720Z,26.00
2019-01-20T04:03:39.195Z,26.37
2019-01-20T04:06:08.641Z,26.43
2019-01-20T04:08:38.050Z,28.53
2019-01-20T04:11:07.549Z,27.40
2019-01-20T04:13:37.288Z,28.03
2019-01-20T04:16:06.694Z,27.10
2019-01-20T04:18:36.267Z,29.10
2019-01-20T04:21:05.959Z,28.00
2019-01-20T04:23:35.361Z,29.13
2019-01-20T04:26:04.946Z,30.03
2019-01-20T04:28:34.796Z,29.20
2019-01-20T04:31:04.191Z,29.00
2019-01-20T04:33:33.596Z,26.80
2019-01-20T04:36:03.346Z,26.53
2019-01-20T04:38:32.802Z,28.60
2019-01-20T04:41:02.204Z,29.87
2019-01-20T04:43:31.709Z,30.57
2019-01-20T04:46:01.187Z,30.33
2019-01-20T04:48:30.672Z,31.57
2019-01-20T04:51:00.126Z,30.87
2019-01-20T04:53:29.709Z,32.10
2019-01-20T04:55:59.180Z,33.33
2019-01-20T04:58:28.841Z,30.63
2019-01-20T05:00:58.516Z,32.63
2019-01-20T05:03:27.989Z,28.63
2019-01-20T05:05:57.435Z,30.03
2019-01-20T05:08:26.827Z,29.57
2019-01-20T05:10:56.336Z,29.23
2019-01-20T05:13:25.836Z,30.00
2019-01-20T05:15:55.239Z,32.73
2019-01-20T05:18:24.645Z,28.10
2019-01-20T05:20:54.169Z,27.80
2019-01-20T05:23:23.653Z,28.43
2019-01-20T05:25:53.065Z,28.10
2019-01-20T05:28:22.660Z,25.33
2019-01-20T05:30:52.188Z,25.73
2019-01-20T05:33:21.671Z,25.83
2019-01-20T05:35:51.200Z,26.60
2019-01-20T05:38:20.639Z,27.13
2019-01-20T05:40:50.154Z,27.80
2019-01-20T05:43:19.695Z,26.87
2019-01-20T05:45:49.102Z,29.73
2019-01-20T05:48:18.605Z,25.00
2019-01-20T05:50:48.171Z,28.10
2019-01-20T05:53:17.665Z,30.00
2019-01-20T05:55:47.105Z,31.67
2019-01-20T05:58:16.554Z,34.17
2019-01-20T06:00:46.155Z,40.23
2019-01-20T06:03:16.803Z,40.87
2019-01-20T06:05:46.241Z,41.73
2019-01-20T06:08:15.678Z,42.87
2019-01-20T06:10:45.196Z,42.67
2019-01-20T06:13:14.706Z,41.87
2019-01-20T06:15:44.937Z,36.70
2019-01-20T06:18:14.470Z,35.17
2019-01-20T06:20:43.870Z,31.90
2019-01-20T06:23:13.268Z,37.87
2019-01-20T06:25:42.730Z,35.93
2019-01-20T06:28:12.251Z,29.90
2019-01-20T06:30:41.651Z,35.03
2019-01-20T06:33:11.037Z,36.93
2019-01-20T06:35:40.622Z,39.63
2019-01-20T06:38:10.451Z,34.03
2019-01-20T06:40:39.835Z,34.00
2019-01-20T06:43:09.267Z,34.87
2019-01-20T06:45:38.754Z,35.33
2019-01-20T06:48:08.234Z,29.83
2019-01-20T06:50:37.701Z,29.10
2019-01-20T06:53:07.112Z,27.37
2019-01-20T06:55:36.633Z,26.80
2019-01-20T06:58:06.278Z,22.73
2019-01-20T07:00:36.574Z,23.87
2019-01-20T07:03:06.126Z,27.17
2019-01-20T07:05:35.740Z,29.90
2019-01-20T07:08:05.406Z,25.73
2019-01-20T07:10:34.891Z,23.63
2019-01-20T07:13:09.230Z,22.23
2019-01-20T07:15:35.749Z,20.60
2019-01-20T07:18:05.286Z,29.23
2019-01-20T07:20:34.818Z,23.87
2019-01-20T07:23:04.419Z,31.67
2019-01-20T07:25:33.829Z,30.90
2019-01-20T07:28:03.475Z,23.37
2019-01-20T07:30:32.983Z,26.40
2019-01-20T07:33:04.534Z,23.07
2019-01-20T07:35:34.125Z,20.30
2019-01-20T07:38:03.770Z,25.30
2019-01-20T07:40:34.480Z,31.57
2019-01-20T07:43:04.251Z,25.43
2019-01-20T07:45:34.442Z,25.30
2019-01-20T07:48:03.963Z,52.97
2019-01-20T07:50:33.452Z,62.13
2019-01-20T07:53:02.935Z,69.60
2019-01-20T07:55:32.454Z,68.03
2019-01-20T07:58:02.367Z,71.73
2019-01-20T08:00:31.956Z,68.27
2019-01-20T08:03:02.179Z,69.30
2019-01-20T08:05:32.017Z,67.20
2019-01-20T08:08:01.561Z,61.90
2019-01-20T08:10:31.459Z,60.87
2019-01-20T08:13:00.938Z,60.30
2019-01-20T08:15:30.447Z,61.73
2019-01-20T08:18:00.147Z,64.93
2019-01-20T08:20:29.895Z,64.80
2019-01-20T08:22:59.428Z,58.77
2019-01-20T08:25:28.935Z,53.97
2019-01-20T08:27:58.390Z,59.93
2019-01-20T08:30:28.804Z,61.33
2019-01-20T08:32:58.294Z,60.40
2019-01-20T08:35:27.884Z,56.83
2019-01-20T08:37:57.314Z,54.83
2019-01-20T08:40:31.329Z,53.80
2019-01-20T08:43:01.176Z,57.67
2019-01-20T08:45:49.951Z,54.13
2019-01-20T08:48:21.212Z,58.57
2019-01-20T08:50:50.716Z,54.63
2019-01-20T08:53:20.437Z,55.90
2019-01-20T08:55:49.882Z,60.10
2019-01-20T08:58:19.381Z,59.20
2019-01-20T09:00:48.983Z,58.13
2019-01-20T09:03:21.462Z,60.63
2019-01-20T09:05:51.012Z,56.63
2019-01-20T09:08:20.749Z,56.90
2019-01-20T09:10:50.234Z,51.40
2019-01-20T09:13:20.661Z,52.30
2019-01-20T09:15:50.414Z,53.83
2019-01-20T09:18:20.191Z,59.00
2019-01-20T09:20:49.885Z,59.10
2019-01-20T09:23:19.349Z,56.97
2019-01-20T09:25:52.117Z,58.43
2019-01-20T09:28:21.637Z,58.13
2019-01-20T09:30:51.095Z,56.00
2019-01-20T09:33:24.715Z,64.13
2019-01-20T09:35:58.711Z,53.03
2019-01-20T09:39:30.910Z,57.40
2019-01-20T09:42:04.114Z,53.10
2019-01-20T09:44:33.832Z,56.73
2019-01-20T09:47:04.000Z,62.90
2019-01-20T09:49:33.507Z,65.00
2019-01-20T09:52:03.944Z,62.57
2019-01-20T09:54:35.491Z,67.10
2019-01-20T09:57:14.598Z,63.33
2019-01-20T09:59:47.544Z,61.33
2019-01-20T10:02:16.851Z,62.77
2019-01-20T10:04:46.732Z,63.60
2019-01-20T10:07:16.115Z,65.33
2019-01-20T10:09:45.524Z,71.77
2019-01-20T10:12:15.066Z,77.23
2019-01-20T10:14:44.533Z,72.73
2019-01-20T10:17:13.962Z,65.07
2019-01-20T10:19:46.499Z,62.33
2019-01-20T10:22:15.957Z,64.97
2019-01-20T10:24:45.380Z,64.97
2019-01-20T10:27:14.961Z,66.37
2019-01-20T10:29:44.409Z,61.87
2019-01-20T10:32:34.750Z,59.50
2019-01-20T10:35:05.305Z,60.07
2019-01-20T10:37:35.773Z,61.87
2019-01-20T10:40:06.357Z,59.33
2019-01-20T10:42:35.791Z,54.10
2019-01-20T10:45:06.711Z,53.60
2019-01-20T10:47:36.254Z,50.17
2019-01-20T10:50:07.565Z,54.47
2019-01-20T10:52:37.325Z,55.77
2019-01-20T10:55:08.018Z,59.00
2019-01-20T10:57:38.906Z,57.20
2019-01-20T11:00:17.028Z,52.07
2019-01-20T11:02:47.873Z,49.17
2019-01-20T11:05:17.278Z,48.27
2019-01-20T11:07:47.022Z,48.80
2019-01-20T11:10:16.797Z,49.23
2019-01-20T11:12:46.414Z,49.30
2019-01-20T11:15:17.191Z,51.23
2019-01-20T11:17:46.713Z,49.77
2019-01-20T11:20:17.033Z,52.33
2019-01-20T11:22:47.049Z,51.10
2019-01-20T11:25:20.219Z,49.03
2019-01-20T11:27:49.784Z,48.03
2019-01-20T11:30:19.555Z,42.80
2019-01-20T11:32:49.353Z,38.67
2019-01-20T11:35:19.681Z,34.77
2019-01-20T11:37:49.598Z,35.33
2019-01-20T11:40:19.267Z,38.10
2019-01-20T11:42:48.874Z,37.93
2019-01-20T11:45:20.811Z,41.50
2019-01-20T11:47:50.320Z,53.93
2019-01-20T11:50:20.469Z,56.80
2019-01-20T11:52:50.117Z,45.43
2019-01-20T11:55:21.098Z,34.67
2019-01-20T11:57:50.632Z,31.53
2019-01-20T12:00:22.454Z,28.77
2019-01-20T12:02:52.230Z,30.17
2019-01-20T12:05:22.398Z,31.17
2019-01-20T12:07:51.996Z,30.33
2019-01-20T12:10:22.306Z,29.07
2019-01-20T12:12:57.371Z,34.43
2019-01-20T12:15:27.134Z,31.57
2019-01-20T12:17:56.589Z,30.43
2019-01-20T12:20:26.123Z,31.03
2019-01-20T12:22:55.522Z,30.90
2019-01-20T12:25:24.926Z,29.30
2019-01-20T12:27:54.474Z,30.27
2019-01-20T12:30:25.905Z,31.50
2019-01-20T12:32:55.553Z,29.20
2019-01-20T12:35:25.402Z,29.03
2019-01-20T12:37:54.991Z,31.47
2019-01-20T12:40:30.394Z,29.70
2019-01-20T12:42:59.768Z,29.93
2019-01-20T12:45:29.371Z,27.67
2019-01-20T12:47:58.946Z,31.33
2019-01-20T12:50:28.413Z,28.40
2019-01-20T12:52:57.887Z,29.37
2019-01-20T12:55:27.644Z,31.83
2019-01-20T12:57:57.131Z,31.20
2019-01-20T13:00:26.533Z,30.87
2019-01-20T13:02:56.136Z,32.30
2019-01-20T13:05:25.708Z,31.57
2019-01-20T13:07:55.159Z,33.50
2019-01-20T13:10:24.632Z,35.90
2019-01-20T13:12:54.114Z,31.50
2019-01-20T13:15:23.759Z,34.43
2019-01-20T13:17:53.347Z,31.07
2019-01-20T13:20:24.292Z,30.67
2019-01-20T13:22:54.032Z,28.80
2019-01-20T13:25:25.655Z,31.00
2019-01-20T13:27:55.075Z,32.23
2019-01-20T13:30:26.188Z,31.90
2019-01-20T13:32:55.859Z,31.67
2019-01-20T13:35:26.300Z,32.27
2019-01-20T13:38:01.763Z,30.40
2019-01-20T13:40:53.217Z,28.87
2019-01-20T13:43:22.678Z,31.87
2019-01-20T13:45:52.104Z,35.13
2019-01-20T13:48:21.591Z,34.53
2019-01-20T13:50:51.359Z,34.27
2019-01-20T13:53:20.801Z,33.67
2019-01-20T13:55:50.202Z,32.03
2019-01-20T13:58:19.850Z,32.90
2019-01-20T14:00:49.802Z,31.03
2019-01-20T14:03:19.298Z,28.53
2019-01-20T14:05:49.012Z,31.97
2019-01-20T14:08:18.587Z,29.73
2019-01-20T14:10:48.118Z,31.33
2019-01-20T14:13:17.725Z,31.80
2019-01-20T14:15:47.171Z,30.77
2019-01-20T14:18:16.632Z,32.80
2019-01-20T14:20:46.083Z,32.17
2019-01-20T14:23:15.572Z,32.37
2019-01-20T14:25:45.049Z,31.97
2019-01-20T14:28:14.484Z,31.53
2019-01-20T14:30:43.896Z,33.50
2019-01-20T14:33:13.379Z,32.03
2019-01-20T14:35:42.918Z,31.53
2019-01-20T14:38:12.311Z,38.80
2019-01-20T14:40:41.713Z,36.40
2019-01-20T14:43:11.383Z,35.10
2019-01-20T14:45:40.862Z,33.23
2019-01-20T14:48:10.243Z,33.03
2019-01-20T14:50:39.862Z,35.00
2019-01-20T14:53:09.393Z,34.87
2019-01-20T14:55:38.887Z,35.17
2019-01-20T14:58:08.331Z,31.53
2019-01-20T15:00:38.328Z,36.67
2019-01-20T15:03:08.315Z,36.00
2019-01-20T15:05:37.920Z,34.90
2019-01-20T15:08:08.652Z,34.87
2019-01-20T15:10:38.139Z,33.07
2019-01-20T15:13:07.744Z,31.03
2019-01-20T15:15:39.621Z,31.23
2019-01-20T15:18:09.705Z,28.23
2019-01-20T15:20:39.774Z,27.90
2019-01-20T15:23:09.407Z,35.20
2019-01-20T15:25:38.815Z,26.13
2019-01-20T15:28:08.883Z,30.20
2019-01-20T15:30:38.458Z,32.30
2019-01-20T15:33:07.873Z,30.47
2019-01-20T15:35:37.431Z,25.27
2019-01-20T15:38:07.210Z,27.77
2019-01-20T15:40:36.604Z,26.83
2019-01-20T15:43:06.489Z,27.00
2019-01-20T15:45:36.172Z,24.60
2019-01-20T15:48:05.985Z,26.77
2019-01-20T15:50:35.435Z,27.73
2019-01-20T15:53:04.943Z,27.43
2019-01-20T15:55:34.402Z,30.90
2019-01-20T15:58:04.026Z,33.77
2019-01-20T16:00:33.623Z,27.27
2019-01-20T16:03:03.129Z,31.53
2019-01-20T16:05:32.795Z,31.60
2019-01-20T16:08:02.207Z,30.27
2019-01-20T16:10:31.858Z,27.07
2019-01-20T16:13:01.405Z,26.50
2019-01-20T16:15:36.065Z,29.90
2019-01-20T16:18:05.968Z,25.87
2019-01-20T16:20:35.588Z,26.60
2019-01-20T16:23:06.802Z,27.63
2019-01-20T16:25:37.698Z,31.13
2019-01-20T16:28:08.455Z,29.60
2019-01-20T16:30:39.478Z,26.97
2019-01-20T16:33:09.028Z,29.33
2019-01-20T16:35:38.492Z,25.57
2019-01-20T16:38:09.533Z,27.67
2019-01-20T16:40:38.983Z,26.47
2019-01-20T16:43:09.530Z,27.90
2019-01-20T16:45:44.442Z,29.67
2019-01-20T16:48:13.972Z,30.10
2019-01-20T16:50:43.484Z,34.40
2019-01-20T16:53:13.019Z,30.93
2019-01-20T16:55:42.500Z,27.80
2019-01-20T16:58:12.180Z,29.87
2019-01-20T17:00:43.703Z,30.33
2019-01-20T17:03:13.115Z,30.77
2019-01-20T17:05:42.509Z,33.87
2019-01-20T17:08:12.475Z,36.33
2019-01-20T17:10:43.131Z,34.10
2019-01-20T17:13:12.925Z,33.80
2019-01-20T17:15:44.146Z,34.53
2019-01-20T17:18:15.313Z,31.10
2019-01-20T17:20:45.175Z,32.93
2019-01-20T17:23:14.942Z,32.17
2019-01-20T17:25:44.430Z,35.17
2019-01-20T17:28:15.159Z,35.20
2019-01-20T17:30:45.235Z,39.47
2019-01-20T17:33:15.547Z,39.87
2019-01-20T17:35:44.999Z,42.80
2019-01-20T17:38:14.523Z,41.97
2019-01-20T17:40:43.925Z,44.53
2019-01-20T17:43:13.434Z,45.57
2019-01-20T17:45:48.650Z,45.77
2019-01-20T17:48:15.666Z,43.13
2019-01-20T17:50:46.051Z,45.33
2019-01-20T17:53:15.936Z,48.53
2019-01-20T17:55:45.428Z,49.27
2019-01-20T17:58:14.840Z,47.77
2019-01-20T18:00:50.874Z,44.87
2019-01-20T18:03:20.472Z,45.97
2019-01-20T18:05:50.264Z,43.17
2019-01-20T18:08:19.708Z,41.97
2019-01-20T18:10:49.116Z,45.63
2019-01-20T18:13:20.069Z,41.33
2019-01-20T18:15:54.365Z,42.23
2019-01-20T18:18:20.895Z,37.90
2019-01-20T18:20:50.587Z,37.67
2019-01-20T18:23:20.020Z,35.37
2019-01-20T18:25:49.436Z,36.83
2019-01-20T18:28:18.945Z,41.33
2019-01-20T18:30:48.688Z,38.83
2019-01-20T18:33:18.160Z,38.07
2019-01-20T18:35:47.536Z,40.40
2019-01-20T18:38:17.072Z,39.60
2019-01-20T18:40:46.542Z,39.60
2019-01-20T18:43:15.939Z,41.73
2019-01-20T18:45:45.395Z,43.17
2019-01-20T18:48:14.910Z,47.63
2019-01-20T18:50:44.399Z,52.63
2019-01-20T18:53:13.836Z,44.67
2019-01-20T18:55:43.265Z,46.80
2019-01-20T18:58:12.803Z,49.90
2019-01-20T19:00:45.340Z,47.63
2019-01-20T19:03:14.836Z,45.67
2019-01-20T19:05:44.318Z,45.23
2019-01-20T19:08:14.276Z,50.57
2019-01-20T19:10:43.668Z,57.20
2019-01-20T19:13:13.158Z,57.53
2019-01-20T19:15:42.825Z,59.73
2019-01-20T19:18:18.654Z,58.47
2019-01-20T19:20:43.417Z,53.90
2019-01-20T19:23:12.945Z,51.87
2019-01-20T19:25:42.417Z,52.70
2019-01-20T19:28:11.868Z,58.43
2019-01-20T19:30:41.334Z,55.70
2019-01-20T19:33:11.021Z,52.00
2019-01-20T19:35:40.520Z,51.63
2019-01-20T19:38:09.984Z,54.83
2019-01-20T19:40:39.497Z,55.33
2019-01-20T19:43:08.881Z,53.93
2019-01-20T19:45:38.337Z,50.77
2019-01-20T19:48:12.974Z,54.53
2019-01-20T19:50:39.083Z,52.27
2019-01-20T19:53:08.505Z,51.07
2019-01-20T19:55:38.180Z,49.27
2019-01-20T19:58:07.801Z,50.60
2019-01-20T20:00:37.396Z,58.97
2019-01-20T20:03:06.812Z,46.33
2019-01-20T20:05:36.285Z,41.13
2019-01-20T20:08:07.435Z,41.97
2019-01-20T20:10:36.938Z,39.57
2019-01-20T20:13:06.412Z,38.97
2019-01-20T20:15:35.908Z,39.73
2019-01-20T20:18:05.694Z,42.03
2019-01-20T20:20:35.130Z,42.43
2019-01-20T20:23:04.770Z,43.83
2019-01-20T20:25:34.914Z,38.53
2019-01-20T20:28:04.348Z,41.10
2019-01-20T20:30:35.986Z,42.40
2019-01-20T20:33:06.473Z,37.83
2019-01-20T20:35:36.902Z,43.80
2019-01-20T20:38:06.491Z,41.00
2019-01-20T20:40:35.938Z,44.30
2019-01-20T20:43:05.468Z,30.87
2019-01-20T20:45:35.111Z,30.27
2019-01-20T20:48:04.626Z,30.77
2019-01-20T20:50:34.053Z,40.27
2019-01-20T20:53:03.582Z,39.83
2019-01-20T20:55:33.089Z,36.83
2019-01-20T20:58:02.582Z,37.43
2019-01-20T21:00:52.590Z,33.63
2019-01-20T21:03:30.789Z,33.77
2019-01-20T21:06:00.441Z,37.37
2019-01-20T21:08:31.214Z,37.17
2019-01-20T21:11:00.685Z,37.17
2019-01-20T21:13:30.216Z,40.50
2019-01-20T21:15:59.608Z,40.47
2019-01-20T21:18:29.089Z,41.03
2019-01-20T21:20:58.608Z,39.03
2019-01-20T21:23:28.005Z,42.80
2019-01-20T21:25:57.471Z,43.23
2019-01-20T21:28:27.151Z,45.77
2019-01-20T21:30:56.626Z,44.27
2019-01-20T21:33:26.022Z,48.27
2019-01-20T21:35:55.492Z,48.43
2019-01-20T21:38:24.990Z,44.63
2019-01-20T21:40:54.473Z,44.20
2019-01-20T21:43:23.936Z,43.97
2019-01-20T21:45:53.343Z,45.47
2019-01-20T21:48:22.832Z,44.50
2019-01-20T21:50:52.363Z,47.27
2019-01-20T21:53:21.762Z,46.87
2019-01-20T21:55:51.181Z,45.37
2019-01-20T21:58:20.979Z,47.80
2019-01-20T22:00:50.444Z,47.57
2019-01-20T22:03:19.848Z,47.73
2019-01-20T22:05:49.307Z,50.23
2019-01-20T22:08:18.858Z,50.10
2019-01-20T22:10:49.663Z,48.47
2019-01-20T22:13:19.222Z,49.00
2019-01-20T22:15:48.700Z,47.13
2019-01-20T22:18:18.179Z,44.97
2019-01-20T22:20:47.835Z,44.37
2019-01-20T22:23:17.341Z,40.93
2019-01-20T22:25:46.886Z,44.77
2019-01-20T22:28:16.349Z,42.07
2019-01-20T22:30:45.762Z,39.43
2019-01-20T22:33:15.256Z,40.53
2019-01-20T22:35:44.987Z,39.87
2019-01-20T22:38:14.382Z,38.57
2019-01-20T22:40:43.787Z,37.90
2019-01-20T22:43:13.325Z,36.93
2019-01-20T22:45:42.807Z,36.87
2019-01-20T22:48:12.188Z,38.60
2019-01-20T22:50:41.841Z,37.23
2019-01-20T22:53:11.429Z,37.60
2019-01-20T22:55:40.917Z,36.60
2019-01-20T22:58:10.444Z,36.13
2019-01-20T23:00:51.697Z,40.10
2019-01-20T23:03:21.248Z,36.93
2019-01-20T23:05:52.745Z,38.83
2019-01-20T23:08:22.629Z,38.67
2019-01-20T23:10:52.246Z,37.33
2019-01-20T23:13:22.880Z,43.37
2019-01-20T23:15:52.285Z,47.10
2019-01-20T23:18:21.919Z,42.00
2019-01-20T23:20:51.437Z,40.00
2019-01-20T23:23:20.925Z,42.90
2019-01-20T23:25:50.366Z,37.07
2019-01-20T23:28:19.850Z,39.00
2019-01-20T23:30:49.313Z,38.13
2019-01-20T23:33:18.960Z,43.80
2019-01-20T23:35:48.443Z,42.90
2019-01-20T23:38:17.907Z,40.47
2019-01-20T23:40:47.362Z,46.83
2019-01-20T23:43:16.859Z,55.07
2019-01-20T23:45:46.328Z,46.20
2019-01-20T23:48:15.747Z,42.87
2019-01-20T23:50:45.148Z,40.17
2019-01-20T23:53:14.649Z,36.43
2019-01-20T23:55:44.162Z,36.47
2019-01-20T23:58:13.533Z,38.80
